sensor_id;sensor_type;location;lat;lon;timestamp;pressure;altitude;pressure_sealevel;temperature;humidity
44140;BME280;29803;51.048;4.686;2024-01-30T00:00:38;102604.19;;;8.81;100.00
44140;BME280;29803;51.048;4.686;2024-01-30T00:03:08;102590.41;;;8.74;100.00
44140;BME280;29803;51.048;4.686;2024-01-30T00:05:39;102590.28;;;8.76;100.00
44140;BME280;29803;51.048;4.686;2024-01-30T00:08:10;102587.16;;;8.82;100.00
44140;BME280;29803;51.048;4.686;2024-01-30T00:10:40;102593.31;;;8.95;100.00
44140;BME280;29803;51.048;4.686;2024-01-30T00:13:11;102594.34;;;9.05;100.00
44140;BME280;29803;51.048;4.686;2024-01-30T00:15:42;102588.03;;;9.06;100.00
44140;BME280;29803;51.048;4.686;2024-01-30T00:18:13;102594.09;;;9.08;100.00
44140;BME280;29803;51.048;4.686;2024-01-30T00:20:43;102595.25;;;9.17;100.00
44140;BME280;29803;51.048;4.686;2024-01-30T00:23:14;102599.41;;;9.21;100.00
44140;BME280;29803;51.048;4.686;2024-01-30T00:25:44;102591.50;;;9.20;100.00
44140;BME280;29803;51.048;4.686;2024-01-30T00:28:14;102587.97;;;9.19;100.00
44140;BME280;29803;51.048;4.686;2024-01-30T00:30:45;102585.81;;;9.24;100.00
44140;BME280;29803;51.048;4.686;2024-01-30T00:33:15;102581.31;;;9.25;100.00
44140;BME280;29803;51.048;4.686;2024-01-30T00:35:46;102589.00;;;9.29;100.00
44140;BME280;29803;51.048;4.686;2024-01-30T00:38:16;102576.22;;;9.33;100.00
44140;BME280;29803;51.048;4.686;2024-01-30T00:40:48;102582.19;;;9.37;100.00
44140;BME280;29803;51.048;4.686;2024-01-30T00:43:18;102565.06;;;9.39;100.00
44140;BME280;29803;51.048;4.686;2024-01-30T00:45:50;102560.13;;;9.33;100.00
44140;BME280;29803;51.048;4.686;2024-01-30T00:48:22;102557.94;;;9.27;100.00
44140;BME280;29803;51.048;4.686;2024-01-30T00:50:52;102566.16;;;9.13;100.00
44140;BME280;29803;51.048;4.686;2024-01-30T00:53:23;102559.91;;;9.01;100.00
44140;BME280;29803;51.048;4.686;2024-01-30T00:55:53;102564.00;;;8.94;100.00
44140;BME280;29803;51.048;4.686;2024-01-30T00:58:24;102569.75;;;9.00;100.00
44140;BME280;29803;51.048;4.686;2024-01-30T01:00:55;102560.78;;;9.13;100.00
44140;BME280;29803;51.048;4.686;2024-01-30T01:03:25;102560.34;;;9.19;100.00
44140;BME280;29803;51.048;4.686;2024-01-30T01:05:56;102561.94;;;9.21;100.00
44140;BME280;29803;51.048;4.686;2024-01-30T01:08:26;102560.59;;;9.27;100.00
44140;BME280;29803;51.048;4.686;2024-01-30T01:10:57;102561.59;;;9.26;100.00
44140;BME280;29803;51.048;4.686;2024-01-30T01:13:27;102555.72;;;9.21;100.00
44140;BME280;29803;51.048;4.686;2024-01-30T01:15:58;102561.81;;;9.23;100.00
44140;BME280;29803;51.048;4.686;2024-01-30T01:18:28;102558.78;;;9.27;100.00
44140;BME280;29803;51.048;4.686;2024-01-30T01:20:59;102548.69;;;9.31;100.00
44140;BME280;29803;51.048;4.686;2024-01-30T01:23:29;102549.06;;;9.38;100.00
44140;BME280;29803;51.048;4.686;2024-01-30T01:26:00;102545.41;;;9.39;100.00
44140;BME280;29803;51.048;4.686;2024-01-30T01:28:31;102544.81;;;9.35;100.00
44140;BME280;29803;51.048;4.686;2024-01-30T01:31:01;102543.38;;;9.42;100.00
44140;BME280;29803;51.048;4.686;2024-01-30T01:33:35;102537.63;;;9.36;100.00
44140;BME280;29803;51.048;4.686;2024-01-30T01:36:07;102539.19;;;9.27;100.00
44140;BME280;29803;51.048;4.686;2024-01-30T01:38:37;102535.53;;;9.28;100.00
44140;BME280;29803;51.048;4.686;2024-01-30T01:41:08;102536.78;;;9.35;100.00
44140;BME280;29803;51.048;4.686;2024-01-30T01:43:38;102539.72;;;9.43;100.00
44140;BME280;29803;51.048;4.686;2024-01-30T01:46:09;102533.16;;;9.47;100.00
44140;BME280;29803;51.048;4.686;2024-01-30T01:48:41;102529.28;;;9.51;100.00
44140;BME280;29803;51.048;4.686;2024-01-30T01:51:14;102534.41;;;9.54;100.00
44140;BME280;29803;51.048;4.686;2024-01-30T01:53:45;102526.88;;;9.59;100.00
44140;BME280;29803;51.048;4.686;2024-01-30T01:56:16;102536.97;;;9.67;100.00
44140;BME280;29803;51.048;4.686;2024-01-30T01:58:47;102534.06;;;9.70;100.00
44140;BME280;29803;51.048;4.686;2024-01-30T02:01:20;102536.84;;;9.69;100.00
44140;BME280;29803;51.048;4.686;2024-01-30T02:03:51;102527.47;;;9.63;100.00
44140;BME280;29803;51.048;4.686;2024-01-30T02:06:21;102528.56;;;9.60;100.00
44140;BME280;29803;51.048;4.686;2024-01-30T02:08:53;102521.03;;;9.66;100.00
44140;BME280;29803;51.048;4.686;2024-01-30T02:11:24;102524.31;;;9.69;100.00
44140;BME280;29803;51.048;4.686;2024-01-30T02:13:55;102523.22;;;9.72;100.00
44140;BME280;29803;51.048;4.686;2024-01-30T02:16:25;102522.38;;;9.71;100.00
44140;BME280;29803;51.048;4.686;2024-01-30T02:18:57;102520.75;;;9.57;100.00
44140;BME280;29803;51.048;4.686;2024-01-30T02:21:37;102514.81;;;9.54;100.00
44140;BME280;29803;51.048;4.686;2024-01-30T02:24:08;102520.16;;;9.54;100.00
44140;BME280;29803;51.048;4.686;2024-01-30T02:26:50;102511.38;;;9.52;100.00
44140;BME280;29803;51.048;4.686;2024-01-30T02:29:36;102509.78;;;9.49;100.00
44140;BME280;29803;51.048;4.686;2024-01-30T02:32:23;102514.75;;;9.43;100.00
44140;BME280;29803;51.048;4.686;2024-01-30T02:34:53;102509.66;;;9.40;100.00
44140;BME280;29803;51.048;4.686;2024-01-30T02:37:23;102508.81;;;9.39;100.00
44140;BME280;29803;51.048;4.686;2024-01-30T02:39:54;102510.50;;;9.40;100.00
44140;BME280;29803;51.048;4.686;2024-01-30T02:42:24;102511.09;;;9.44;100.00
44140;BME280;29803;51.048;4.686;2024-01-30T02:44:55;102505.00;;;9.42;100.00
44140;BME280;29803;51.048;4.686;2024-01-30T02:47:25;102516.94;;;9.38;100.00
44140;BME280;29803;51.048;4.686;2024-01-30T02:49:56;102519.09;;;9.32;100.00
44140;BME280;29803;51.048;4.686;2024-01-30T02:52:27;102524.72;;;9.29;100.00
44140;BME280;29803;51.048;4.686;2024-01-30T02:54:57;102520.69;;;9.24;100.00
44140;BME280;29803;51.048;4.686;2024-01-30T02:57:28;102522.09;;;9.17;100.00
44140;BME280;29803;51.048;4.686;2024-01-30T02:59:59;102516.41;;;9.21;100.00
44140;BME280;29803;51.048;4.686;2024-01-30T03:02:30;102522.97;;;9.17;100.00
44140;BME280;29803;51.048;4.686;2024-01-30T03:05:00;102524.78;;;9.17;100.00
44140;BME280;29803;51.048;4.686;2024-01-30T03:07:31;102518.72;;;9.26;100.00
44140;BME280;29803;51.048;4.686;2024-01-30T03:10:02;102514.94;;;9.28;100.00
44140;BME280;29803;51.048;4.686;2024-01-30T03:12:34;102519.59;;;9.26;100.00
44140;BME280;29803;51.048;4.686;2024-01-30T03:15:05;102520.72;;;9.35;100.00
44140;BME280;29803;51.048;4.686;2024-01-30T03:17:35;102510.38;;;9.42;100.00
44140;BME280;29803;51.048;4.686;2024-01-30T03:20:09;102511.88;;;9.57;100.00
44140;BME280;29803;51.048;4.686;2024-01-30T03:22:40;102513.22;;;9.63;100.00
44140;BME280;29803;51.048;4.686;2024-01-30T03:25:10;102525.91;;;9.72;100.00
44140;BME280;29803;51.048;4.686;2024-01-30T03:27:41;102519.47;;;9.74;100.00
44140;BME280;29803;51.048;4.686;2024-01-30T03:30:12;102517.50;;;9.76;100.00
44140;BME280;29803;51.048;4.686;2024-01-30T03:32:43;102509.72;;;9.84;100.00
44140;BME280;29803;51.048;4.686;2024-01-30T03:35:14;102509.47;;;9.88;100.00
44140;BME280;29803;51.048;4.686;2024-01-30T03:37:45;102510.06;;;9.91;100.00
44140;BME280;29803;51.048;4.686;2024-01-30T03:40:15;102507.88;;;9.96;100.00
44140;BME280;29803;51.048;4.686;2024-01-30T03:42:46;102509.34;;;10.00;100.00
44140;BME280;29803;51.048;4.686;2024-01-30T03:45:16;102514.44;;;10.03;100.00
44140;BME280;29803;51.048;4.686;2024-01-30T03:47:49;102511.41;;;10.08;100.00
44140;BME280;29803;51.048;4.686;2024-01-30T03:50:20;102503.75;;;10.15;100.00
44140;BME280;29803;51.048;4.686;2024-01-30T03:52:50;102500.22;;;10.14;100.00
44140;BME280;29803;51.048;4.686;2024-01-30T03:55:21;102495.34;;;10.19;100.00
44140;BME280;29803;51.048;4.686;2024-01-30T03:57:51;102496.44;;;10.28;100.00
44140;BME280;29803;51.048;4.686;2024-01-30T04:00:22;102494.97;;;10.24;100.00
44140;BME280;29803;51.048;4.686;2024-01-30T04:02:52;102495.44;;;10.18;100.00
44140;BME280;29803;51.048;4.686;2024-01-30T04:05:23;102495.34;;;10.19;100.00
44140;BME280;29803;51.048;4.686;2024-01-30T04:07:53;102486.03;;;10.23;100.00
44140;BME280;29803;51.048;4.686;2024-01-30T04:10:24;102484.47;;;10.21;100.00
44140;BME280;29803;51.048;4.686;2024-01-30T04:12:55;102474.47;;;10.23;100.00
44140;BME280;29803;51.048;4.686;2024-01-30T04:15:26;102478.41;;;10.30;100.00
44140;BME280;29803;51.048;4.686;2024-01-30T04:17:58;102484.44;;;10.43;100.00
44140;BME280;29803;51.048;4.686;2024-01-30T04:20:29;102482.00;;;10.51;100.00
44140;BME280;29803;51.048;4.686;2024-01-30T04:23:00;102485.03;;;10.58;100.00
44140;BME280;29803;51.048;4.686;2024-01-30T04:25:30;102485.88;;;10.58;100.00
44140;BME280;29803;51.048;4.686;2024-01-30T04:28:01;102484.66;;;10.62;100.00
44140;BME280;29803;51.048;4.686;2024-01-30T04:30:31;102490.63;;;10.66;100.00
44140;BME280;29803;51.048;4.686;2024-01-30T04:33:02;102496.50;;;10.60;100.00
44140;BME280;29803;51.048;4.686;2024-01-30T04:35:32;102490.66;;;10.55;100.00
44140;BME280;29803;51.048;4.686;2024-01-30T04:38:03;102487.38;;;10.51;100.00
44140;BME280;29803;51.048;4.686;2024-01-30T04:40:33;102488.81;;;10.55;100.00
44140;BME280;29803;51.048;4.686;2024-01-30T04:43:04;102498.34;;;10.59;100.00
44140;BME280;29803;51.048;4.686;2024-01-30T04:45:35;102487.81;;;10.68;100.00
44140;BME280;29803;51.048;4.686;2024-01-30T04:48:06;102491.69;;;10.75;100.00
44140;BME280;29803;51.048;4.686;2024-01-30T04:50:36;102491.94;;;10.72;100.00
44140;BME280;29803;51.048;4.686;2024-01-30T04:53:07;102488.66;;;10.68;100.00
44140;BME280;29803;51.048;4.686;2024-01-30T04:55:38;102497.56;;;10.69;100.00
44140;BME280;29803;51.048;4.686;2024-01-30T04:58:08;102481.59;;;10.67;100.00
44140;BME280;29803;51.048;4.686;2024-01-30T05:00:39;102492.06;;;10.70;100.00
44140;BME280;29803;51.048;4.686;2024-01-30T05:03:09;102481.69;;;10.77;100.00
44140;BME280;29803;51.048;4.686;2024-01-30T05:05:40;102481.91;;;10.74;100.00
44140;BME280;29803;51.048;4.686;2024-01-30T05:08:10;102478.84;;;10.78;100.00
44140;BME280;29803;51.048;4.686;2024-01-30T05:10:41;102479.38;;;10.72;100.00
44140;BME280;29803;51.048;4.686;2024-01-30T05:13:11;102482.53;;;10.77;100.00
44140;BME280;29803;51.048;4.686;2024-01-30T05:15:44;102487.03;;;10.77;100.00
44140;BME280;29803;51.048;4.686;2024-01-30T05:18:14;102485.81;;;10.81;100.00
44140;BME280;29803;51.048;4.686;2024-01-30T05:20:45;102486.16;;;10.87;100.00
44140;BME280;29803;51.048;4.686;2024-01-30T05:23:15;102480.06;;;10.85;100.00
44140;BME280;29803;51.048;4.686;2024-01-30T05:25:46;102484.19;;;10.89;100.00
44140;BME280;29803;51.048;4.686;2024-01-30T05:28:16;102485.75;;;10.92;100.00
44140;BME280;29803;51.048;4.686;2024-01-30T05:30:47;102477.38;;;10.85;100.00
44140;BME280;29803;51.048;4.686;2024-01-30T05:33:17;102476.72;;;10.93;100.00
44140;BME280;29803;51.048;4.686;2024-01-30T05:35:48;102489.69;;;10.88;100.00
44140;BME280;29803;51.048;4.686;2024-01-30T05:38:18;102484.53;;;10.96;100.00
44140;BME280;29803;51.048;4.686;2024-01-30T05:40:49;102484.66;;;10.95;100.00
44140;BME280;29803;51.048;4.686;2024-01-30T05:43:20;102482.09;;;10.93;100.00
44140;BME280;29803;51.048;4.686;2024-01-30T05:45:51;102488.44;;;10.92;100.00
44140;BME280;29803;51.048;4.686;2024-01-30T05:48:22;102486.47;;;10.94;100.00
44140;BME280;29803;51.048;4.686;2024-01-30T05:50:52;102486.38;;;10.96;100.00
44140;BME280;29803;51.048;4.686;2024-01-30T05:53:23;102487.81;;;11.00;100.00
44140;BME280;29803;51.048;4.686;2024-01-30T05:55:53;102485.38;;;10.97;100.00
44140;BME280;29803;51.048;4.686;2024-01-30T05:58:24;102484.66;;;10.95;100.00
44140;BME280;29803;51.048;4.686;2024-01-30T06:00:54;102484.53;;;10.96;100.00
44140;BME280;29803;51.048;4.686;2024-01-30T06:03:25;102490.50;;;11.00;100.00
44140;BME280;29803;51.048;4.686;2024-01-30T06:05:55;102486.09;;;10.99;100.00
44140;BME280;29803;51.048;4.686;2024-01-30T06:08:26;102486.94;;;10.99;100.00
44140;BME280;29803;51.048;4.686;2024-01-30T06:10:56;102496.25;;;10.95;100.00
44140;BME280;29803;51.048;4.686;2024-01-30T06:13:27;102492.81;;;10.93;100.00
44140;BME280;29803;51.048;4.686;2024-01-30T06:15:57;102496.81;;;10.99;100.00
44140;BME280;29803;51.048;4.686;2024-01-30T06:18:28;102501.72;;;10.94;100.00
44140;BME280;29803;51.048;4.686;2024-01-30T06:21:00;102507.09;;;10.94;100.00
44140;BME280;29803;51.048;4.686;2024-01-30T06:23:31;102505.88;;;10.98;100.00
44140;BME280;29803;51.048;4.686;2024-01-30T06:36:21;102525.00;;;11.04;100.00
44140;BME280;29803;51.048;4.686;2024-01-30T06:38:51;102529.53;;;11.04;100.00
44140;BME280;29803;51.048;4.686;2024-01-30T06:41:22;102530.66;;;11.01;100.00
44140;BME280;29803;51.048;4.686;2024-01-30T06:43:52;102536.03;;;11.01;100.00
44140;BME280;29803;51.048;4.686;2024-01-30T06:46:23;102538.31;;;11.06;100.00
44140;BME280;29803;51.048;4.686;2024-01-30T06:48:53;102534.03;;;11.03;100.00
44140;BME280;29803;51.048;4.686;2024-01-30T06:51:24;102541.53;;;11.00;100.00
44140;BME280;29803;51.048;4.686;2024-01-30T06:53:54;102547.00;;;10.98;100.00
44140;BME280;29803;51.048;4.686;2024-01-30T06:56:25;102543.94;;;11.03;100.00
44140;BME280;29803;51.048;4.686;2024-01-30T06:58:55;102556.03;;;10.97;100.00
44140;BME280;29803;51.048;4.686;2024-01-30T07:01:28;102564.72;;;11.01;100.00
44140;BME280;29803;51.048;4.686;2024-01-30T07:03:59;102557.75;;;10.98;100.00
44140;BME280;29803;51.048;4.686;2024-01-30T07:06:30;102562.25;;;10.98;100.00
44140;BME280;29803;51.048;4.686;2024-01-30T07:09:00;102563.88;;;11.00;100.00
44140;BME280;29803;51.048;4.686;2024-01-30T07:11:31;102571.91;;;11.00;100.00
44140;BME280;29803;51.048;4.686;2024-01-30T07:14:02;102574.59;;;11.00;100.00
44140;BME280;29803;51.048;4.686;2024-01-30T07:16:35;102581.06;;;10.98;100.00
44140;BME280;29803;51.048;4.686;2024-01-30T07:19:05;102581.91;;;10.98;100.00
44140;BME280;29803;51.048;4.686;2024-01-30T07:21:35;102583.41;;;10.91;100.00
44140;BME280;29803;51.048;4.686;2024-01-30T07:24:06;102583.88;;;10.96;100.00
44140;BME280;29803;51.048;4.686;2024-01-30T07:26:37;102583.75;;;10.98;100.00
44140;BME280;29803;51.048;4.686;2024-01-30T07:29:07;102584.75;;;10.97;100.00
44140;BME280;29803;51.048;4.686;2024-01-30T07:31:37;102583.38;;;11.02;100.00
44140;BME280;29803;51.048;4.686;2024-01-30T07:34:08;102590.19;;;11.06;100.00
44140;BME280;29803;51.048;4.686;2024-01-30T07:36:39;102592.13;;;11.15;100.00
44140;BME280;29803;51.048;4.686;2024-01-30T07:39:09;102597.84;;;11.22;100.00
44140;BME280;29803;51.048;4.686;2024-01-30T07:41:40;102603.91;;;11.24;100.00
44140;BME280;29803;51.048;4.686;2024-01-30T07:44:11;102610.75;;;11.28;100.00
44140;BME280;29803;51.048;4.686;2024-01-30T07:46:41;102614.50;;;11.37;100.00
44140;BME280;29803;51.048;4.686;2024-01-30T07:49:12;102612.16;;;11.44;100.00
44140;BME280;29803;51.048;4.686;2024-01-30T07:51:44;102613.75;;;11.46;100.00
44140;BME280;29803;51.048;4.686;2024-01-30T07:54:15;102608.38;;;11.46;100.00
44140;BME280;29803;51.048;4.686;2024-01-30T07:56:46;102618.72;;;11.51;100.00
44140;BME280;29803;51.048;4.686;2024-01-30T07:59:16;102620.28;;;11.53;100.00
44140;BME280;29803;51.048;4.686;2024-01-30T08:01:47;102616.13;;;11.60;100.00
44140;BME280;29803;51.048;4.686;2024-01-30T08:04:17;102614.53;;;11.58;100.00
44140;BME280;29803;51.048;4.686;2024-01-30T08:06:48;102615.75;;;11.65;100.00
44140;BME280;29803;51.048;4.686;2024-01-30T08:09:18;102614.06;;;11.74;100.00
44140;BME280;29803;51.048;4.686;2024-01-30T08:11:49;102618.75;;;11.72;100.00
44140;BME280;29803;51.048;4.686;2024-01-30T08:14:19;102609.16;;;11.79;100.00
44140;BME280;29803;51.048;4.686;2024-01-30T08:16:50;102616.03;;;11.83;100.00
44140;BME280;29803;51.048;4.686;2024-01-30T08:19:20;102612.69;;;11.79;100.00
44140;BME280;29803;51.048;4.686;2024-01-30T08:21:51;102619.22;;;11.77;100.00
44140;BME280;29803;51.048;4.686;2024-01-30T08:24:21;102623.44;;;11.79;100.00
44140;BME280;29803;51.048;4.686;2024-01-30T08:26:52;102624.81;;;11.85;100.00
44140;BME280;29803;51.048;4.686;2024-01-30T08:29:22;102622.59;;;11.90;100.00
44140;BME280;29803;51.048;4.686;2024-01-30T08:31:53;102624.28;;;11.91;100.00
44140;BME280;29803;51.048;4.686;2024-01-30T08:34:25;102633.22;;;11.91;100.00
44140;BME280;29803;51.048;4.686;2024-01-30T08:36:56;102632.69;;;11.98;100.00
44140;BME280;29803;51.048;4.686;2024-01-30T08:39:26;102624.91;;;12.04;100.00
44140;BME280;29803;51.048;4.686;2024-01-30T08:41:57;102633.34;;;12.11;100.00
44140;BME280;29803;51.048;4.686;2024-01-30T08:44:28;102628.59;;;12.03;100.00
44140;BME280;29803;51.048;4.686;2024-01-30T08:46:58;102628.25;;;12.17;100.00
44140;BME280;29803;51.048;4.686;2024-01-30T08:49:29;102628.72;;;12.23;100.00
44140;BME280;29803;51.048;4.686;2024-01-30T08:51:59;102633.84;;;12.26;100.00
44140;BME280;29803;51.048;4.686;2024-01-30T08:54:30;102636.97;;;12.31;100.00
44140;BME280;29803;51.048;4.686;2024-01-30T08:57:00;102638.09;;;12.28;100.00
44140;BME280;29803;51.048;4.686;2024-01-30T08:59:31;102637.53;;;12.34;100.00
44140;BME280;29803;51.048;4.686;2024-01-30T09:02:02;102637.28;;;12.37;100.00
44140;BME280;29803;51.048;4.686;2024-01-30T09:04:33;102637.44;;;12.36;100.00
44140;BME280;29803;51.048;4.686;2024-01-30T09:07:04;102635.75;;;12.44;100.00
44140;BME280;29803;51.048;4.686;2024-01-30T09:09:39;102640.47;;;12.52;100.00
44140;BME280;29803;51.048;4.686;2024-01-30T09:12:11;102638.06;;;12.59;100.00
44140;BME280;29803;51.048;4.686;2024-01-30T09:14:41;102649.00;;;12.57;100.00
44140;BME280;29803;51.048;4.686;2024-01-30T09:17:12;102650.53;;;12.50;100.00
44140;BME280;29803;51.048;4.686;2024-01-30T09:19:43;102656.78;;;12.51;100.00
44140;BME280;29803;51.048;4.686;2024-01-30T09:22:13;102654.19;;;12.49;100.00
44140;BME280;29803;51.048;4.686;2024-01-30T09:24:44;102659.00;;;12.46;100.00
44140;BME280;29803;51.048;4.686;2024-01-30T09:27:15;102651.78;;;12.46;100.00
44140;BME280;29803;51.048;4.686;2024-01-30T09:29:45;102654.34;;;12.48;100.00
44140;BME280;29803;51.048;4.686;2024-01-30T09:32:16;102659.28;;;12.42;100.00
44140;BME280;29803;51.048;4.686;2024-01-30T09:34:47;102653.22;;;12.50;100.00
44140;BME280;29803;51.048;4.686;2024-01-30T09:37:18;102659.72;;;12.48;100.00
44140;BME280;29803;51.048;4.686;2024-01-30T09:39:49;102664.91;;;12.39;100.00
44140;BME280;29803;51.048;4.686;2024-01-30T09:42:22;102671.53;;;12.56;100.00
44140;BME280;29803;51.048;4.686;2024-01-30T09:44:56;102666.03;;;12.67;100.00
44140;BME280;29803;51.048;4.686;2024-01-30T09:47:27;102676.09;;;12.65;100.00
44140;BME280;29803;51.048;4.686;2024-01-30T09:49:58;102668.47;;;12.70;100.00
44140;BME280;29803;51.048;4.686;2024-01-30T09:52:29;102673.75;;;12.82;100.00
44140;BME280;29803;51.048;4.686;2024-01-30T09:55:00;102685.41;;;12.92;100.00
44140;BME280;29803;51.048;4.686;2024-01-30T09:57:31;102682.75;;;13.02;100.00
44140;BME280;29803;51.048;4.686;2024-01-30T10:00:03;102688.84;;;13.04;100.00
44140;BME280;29803;51.048;4.686;2024-01-30T10:02:35;102691.78;;;12.91;100.00
44140;BME280;29803;51.048;4.686;2024-01-30T10:05:07;102693.09;;;12.96;100.00
44140;BME280;29803;51.048;4.686;2024-01-30T10:07:38;102701.84;;;12.89;100.00
44140;BME280;29803;51.048;4.686;2024-01-30T10:10:08;102707.22;;;12.89;100.00
44140;BME280;29803;51.048;4.686;2024-01-30T10:12:39;102715.31;;;12.89;100.00
44140;BME280;29803;51.048;4.686;2024-01-30T10:15:10;102718.84;;;12.89;100.00
44140;BME280;29803;51.048;4.686;2024-01-30T10:17:41;102713.59;;;12.88;100.00
44140;BME280;29803;51.048;4.686;2024-01-30T10:20:12;102717.09;;;12.79;100.00
44140;BME280;29803;51.048;4.686;2024-01-30T10:22:44;102710.59;;;12.81;100.00
44140;BME280;29803;51.048;4.686;2024-01-30T10:25:16;102714.19;;;12.91;100.00
44140;BME280;29803;51.048;4.686;2024-01-30T10:27:46;102712.84;;;12.76;100.00
44140;BME280;29803;51.048;4.686;2024-01-30T10:30:17;102725.63;;;12.84;100.00
44140;BME280;29803;51.048;4.686;2024-01-30T10:32:48;102728.16;;;12.76;100.00
44140;BME280;29803;51.048;4.686;2024-01-30T10:35:18;102728.72;;;12.79;100.00
44140;BME280;29803;51.048;4.686;2024-01-30T10:37:49;102731.59;;;12.87;100.00
44140;BME280;29803;51.048;4.686;2024-01-30T10:40:21;102728.03;;;12.77;100.00
44140;BME280;29803;51.048;4.686;2024-01-30T10:42:52;102737.59;;;12.70;100.00
44140;BME280;29803;51.048;4.686;2024-01-30T10:45:26;102743.00;;;12.70;100.00
44140;BME280;29803;51.048;4.686;2024-01-30T10:47:58;102744.06;;;12.58;100.00
44140;BME280;29803;51.048;4.686;2024-01-30T10:50:30;102753.53;;;12.52;100.00
44140;BME280;29803;51.048;4.686;2024-01-30T10:53:04;102754.19;;;12.44;100.00
44140;BME280;29803;51.048;4.686;2024-01-30T10:55:36;102748.00;;;12.54;100.00
44140;BME280;29803;51.048;4.686;2024-01-30T10:58:07;102747.56;;;12.49;100.00
44140;BME280;29803;51.048;4.686;2024-01-30T11:00:38;102746.00;;;12.46;100.00
44140;BME280;29803;51.048;4.686;2024-01-30T11:03:09;102742.56;;;12.44;100.00
44140;BME280;29803;51.048;4.686;2024-01-30T11:05:41;102748.41;;;12.49;100.00
44140;BME280;29803;51.048;4.686;2024-01-30T11:08:13;102747.38;;;12.40;100.00
44140;BME280;29803;51.048;4.686;2024-01-30T11:10:46;102730.72;;;12.26;100.00
44140;BME280;29803;51.048;4.686;2024-01-30T11:13:19;102742.97;;;12.39;100.00
44140;BME280;29803;51.048;4.686;2024-01-30T11:15:49;102740.88;;;12.43;100.00
44140;BME280;29803;51.048;4.686;2024-01-30T11:18:29;102740.81;;;12.33;100.00
44140;BME280;29803;51.048;4.686;2024-01-30T11:20:59;102732.28;;;12.28;100.00
44140;BME280;29803;51.048;4.686;2024-01-30T11:23:33;102742.34;;;12.26;100.00
44140;BME280;29803;51.048;4.686;2024-01-30T11:26:05;102744.66;;;12.19;100.00
44140;BME280;29803;51.048;4.686;2024-01-30T11:28:37;102751.03;;;12.18;100.00
44140;BME280;29803;51.048;4.686;2024-01-30T11:31:08;102763.25;;;12.23;100.00
44140;BME280;29803;51.048;4.686;2024-01-30T11:33:39;102756.72;;;12.04;100.00
44140;BME280;29803;51.048;4.686;2024-01-30T11:36:10;102758.31;;;12.07;100.00
44140;BME280;29803;51.048;4.686;2024-01-30T11:38:43;102752.41;;;12.13;100.00
44140;BME280;29803;51.048;4.686;2024-01-30T11:41:16;102759.50;;;12.14;100.00
44140;BME280;29803;51.048;4.686;2024-01-30T11:43:53;102760.78;;;12.10;100.00
44140;BME280;29803;51.048;4.686;2024-01-30T11:46:25;102758.78;;;12.12;100.00
44140;BME280;29803;51.048;4.686;2024-01-30T11:48:55;102764.25;;;12.22;100.00
44140;BME280;29803;51.048;4.686;2024-01-30T11:51:26;102758.00;;;12.21;100.00
44140;BME280;29803;51.048;4.686;2024-01-30T11:53:57;102759.88;;;12.09;100.00
44140;BME280;29803;51.048;4.686;2024-01-30T11:56:28;102767.72;;;12.12;100.00
44140;BME280;29803;51.048;4.686;2024-01-30T11:58:58;102764.72;;;12.27;100.00
44140;BME280;29803;51.048;4.686;2024-01-30T12:01:31;102769.81;;;12.30;100.00
44140;BME280;29803;51.048;4.686;2024-01-30T12:04:02;102774.41;;;12.39;100.00
44140;BME280;29803;51.048;4.686;2024-01-30T12:06:33;102770.94;;;12.48;100.00
44140;BME280;29803;51.048;4.686;2024-01-30T12:09:04;102767.47;;;12.36;100.00
44140;BME280;29803;51.048;4.686;2024-01-30T12:11:49;102758.88;;;12.42;100.00
44140;BME280;29803;51.048;4.686;2024-01-30T12:14:22;102753.66;;;12.72;100.00
44140;BME280;29803;51.048;4.686;2024-01-30T12:16:53;102757.78;;;12.76;100.00
44140;BME280;29803;51.048;4.686;2024-01-30T12:19:24;102757.34;;;12.70;100.00
44140;BME280;29803;51.048;4.686;2024-01-30T12:21:56;102760.81;;;12.61;100.00
44140;BME280;29803;51.048;4.686;2024-01-30T12:24:29;102768.09;;;12.50;100.00
44140;BME280;29803;51.048;4.686;2024-01-30T12:27:00;102781.00;;;12.46;100.00
44140;BME280;29803;51.048;4.686;2024-01-30T12:29:32;102777.38;;;12.36;100.00
44140;BME280;29803;51.048;4.686;2024-01-30T12:32:03;102783.41;;;12.28;100.00
44140;BME280;29803;51.048;4.686;2024-01-30T12:34:34;102789.31;;;12.22;100.00
44140;BME280;29803;51.048;4.686;2024-01-30T12:37:04;102777.41;;;12.04;100.00
44140;BME280;29803;51.048;4.686;2024-01-30T12:39:36;102785.84;;;12.10;100.00
44140;BME280;29803;51.048;4.686;2024-01-30T12:42:07;102782.34;;;12.19;100.00
44140;BME280;29803;51.048;4.686;2024-01-30T12:44:37;102783.72;;;12.35;100.00
44140;BME280;29803;51.048;4.686;2024-01-30T12:47:09;102792.63;;;12.47;100.00
44140;BME280;29803;51.048;4.686;2024-01-30T12:49:40;102777.16;;;12.69;100.00
44140;BME280;29803;51.048;4.686;2024-01-30T12:52:11;102786.47;;;12.86;100.00
44140;BME280;29803;51.048;4.686;2024-01-30T12:54:42;102798.34;;;12.84;100.00
44140;BME280;29803;51.048;4.686;2024-01-30T12:57:13;102793.75;;;12.75;100.00
44140;BME280;29803;51.048;4.686;2024-01-30T12:59:44;102792.59;;;12.67;100.00
44140;BME280;29803;51.048;4.686;2024-01-30T13:02:15;102790.16;;;12.64;100.00
44140;BME280;29803;51.048;4.686;2024-01-30T13:04:46;102787.41;;;12.76;100.00
44140;BME280;29803;51.048;4.686;2024-01-30T13:07:17;102787.22;;;12.98;100.00
44140;BME280;29803;51.048;4.686;2024-01-30T13:09:48;102799.44;;;13.02;100.00
44140;BME280;29803;51.048;4.686;2024-01-30T13:12:18;102798.56;;;12.92;100.00